Weather at St. John's International Airport

Public forecast

Using degrees Celsius for public forecast. Weather courtesy of forecast.io.

Current aviation weather report (METAR) for St. John's International Airport

Retrieved 2020/11/24 16:00 UTC (44 minutes ago):

CYYT 241600Z 20032G48KT 1 1/2SM +RA BR OVC004 11/11 A2936 RMK FG4SF4 SLP948 DENSITY ALT 800FT

Aviation forecast (TAF) for St. John's International Airport

Retrieved 2020/11/24 12:40 UTC (4 hours ago):

TAF CYYT 241138Z 2412/2512 19030G40KT 2SM -RA BR OVC003 TEMPO 2412/2416 6SM -RA BR OVC010 BECMG 2412/2414 18030G45KT FM241600 18030G45KT P6SM -RA OVC015 TEMPO 2416/2418 5SM -RA BR OVC008 FM241800 23020G35KT P6SM -SHRA OVC015 FM242200 25030G45KT P6SM BKN030 BECMG 2502/2504 27020G30KT FM251000 29015G25KT P6SM SCT030 RMK NXT FCST BY 241800Z